Bogucar, Russia
Current Conditions -  °F | °C
As of 7:30 PM on Tuesday 27 Jan 2015 (Local Time) from UUOO Reporting Station
Heavy Snow Heavy Snow  
Wind Chill: 13°   Ceiling: 300
Heat Index: 21°   Visibility: 0.43mi
Dew Point: 18°   Wind: 7mph
Humidity: 86%   Direction: 140°SE
Pressure: 30.12"   Gusts: NA
Location:  49.93°N, 40.57°E
Report Text: UUOO 271630Z 14003MPS 0700 R30/1500D +SN VV003 M06/M08 Q1020 TEMPO 1000 RMK 30493035
Loading
Personal Weather Stations






























Interactive Weather Map New forecast layout! Learn more

10-Day Weather Forecast

Advertisements
Track Severe Weather on mobile